createdAt,value
2019-05-25T00:01:41.266Z,13.10
2019-05-25T00:06:46.575Z,12.97
2019-05-25T00:11:51.819Z,12.83
2019-05-25T00:16:57.065Z,12.61
2019-05-25T00:22:02.298Z,12.31
2019-05-25T00:27:07.858Z,12.12
2019-05-25T00:32:13.048Z,12.01
2019-05-25T00:37:18.794Z,12.04
2019-05-25T00:42:24.446Z,11.93
2019-05-25T00:47:29.699Z,11.88
2019-05-25T00:52:35.026Z,11.72
2019-05-25T00:57:40.280Z,11.78
2019-05-25T01:02:45.527Z,11.67
2019-05-25T01:07:51.054Z,11.50
2019-05-25T01:12:56.307Z,11.42
2019-05-25T01:18:01.567Z,11.47
2019-05-25T01:23:07.420Z,11.35
2019-05-25T01:28:13.222Z,11.37
2019-05-25T01:33:18.480Z,11.43
2019-05-25T01:38:23.724Z,11.35
2019-05-25T01:43:28.976Z,11.37
2019-05-25T01:48:34.233Z,11.36
2019-05-25T01:53:39.507Z,11.26
2019-05-25T01:58:45.002Z,11.29
2019-05-25T02:03:50.626Z,11.29
2019-05-25T02:08:55.881Z,11.31
2019-05-25T02:14:01.211Z,11.32
2019-05-25T02:19:07.232Z,11.29
2019-05-25T02:24:12.801Z,11.27
2019-05-25T02:29:18.157Z,11.05
2019-05-25T02:34:23.723Z,11.09
2019-05-25T02:39:29.371Z,11.06
2019-05-25T02:44:34.617Z,10.98
2019-05-25T02:49:40.192Z,11.00
2019-05-25T02:54:45.445Z,10.96
2019-05-25T02:59:50.715Z,10.92
2019-05-25T03:04:55.960Z,10.93
2019-05-25T03:10:03.715Z,11.00
2019-05-25T03:15:09.112Z,11.06
2019-05-25T03:20:14.592Z,11.01
2019-05-25T03:25:19.950Z,10.92
2019-05-25T03:30:35.648Z,10.86
2019-05-25T03:35:40.944Z,10.78
2019-05-25T03:40:47.047Z,10.55
2019-05-25T03:45:52.218Z,10.59
2019-05-25T03:50:57.923Z,10.70
2019-05-25T03:56:06.230Z,10.71
2019-05-25T04:01:10.609Z,10.86
2019-05-25T04:06:15.894Z,10.89
2019-05-25T04:11:21.131Z,11.00
2019-05-25T04:16:26.781Z,11.06
2019-05-25T04:21:32.057Z,11.18
2019-05-25T04:26:37.323Z,11.18
2019-05-25T04:31:43.162Z,11.23
2019-05-25T04:36:48.419Z,11.31
2019-05-25T04:41:53.715Z,11.38
2019-05-25T04:46:58.938Z,11.41
2019-05-25T04:52:04.284Z,11.61
2019-05-25T04:57:09.688Z,11.72
2019-05-25T05:02:15.309Z,11.77
2019-05-25T05:07:20.556Z,11.60
2019-05-25T05:12:25.801Z,11.68
2019-05-25T05:17:31.095Z,11.79
2019-05-25T05:22:36.323Z,11.98
2019-05-25T05:27:41.580Z,12.20
2019-05-25T05:32:46.836Z,12.25
2019-05-25T05:37:52.576Z,12.31
2019-05-25T05:43:00.455Z,12.27
2019-05-25T05:48:05.786Z,12.33
2019-05-25T05:53:11.020Z,12.35
2019-05-25T05:58:16.565Z,12.37
2019-05-25T06:03:21.824Z,12.45
2019-05-25T06:08:27.098Z,12.52
2019-05-25T06:13:32.326Z,12.58
2019-05-25T06:18:37.566Z,12.55
2019-05-25T06:23:43.127Z,12.53
2019-05-25T06:28:48.442Z,12.58
2019-05-25T06:33:54.031Z,12.63
2019-05-25T06:39:00.265Z,12.66
2019-05-25T06:44:05.699Z,12.59
2019-05-25T06:49:10.931Z,12.76
2019-05-25T06:54:16.159Z,13.01
2019-05-25T06:59:21.314Z,12.94
2019-05-25T07:04:27.210Z,12.93
2019-05-25T07:09:32.442Z,12.98
2019-05-25T07:14:38.035Z,13.10
2019-05-25T07:19:43.262Z,13.22
2019-05-25T07:24:48.486Z,13.32
2019-05-25T07:29:53.716Z,13.36
2019-05-25T07:34:58.949Z,13.44
2019-05-25T07:40:04.588Z,13.33
2019-05-25T07:45:10.223Z,13.59
2019-05-25T07:50:16.052Z,13.84
2019-05-25T07:55:21.592Z,13.97
2019-05-25T08:00:26.926Z,14.07
2019-05-25T08:05:32.183Z,14.04
2019-05-25T08:10:37.736Z,14.19
2019-05-25T08:15:43.526Z,14.26
2019-05-25T08:20:49.489Z,14.55
2019-05-25T08:25:54.995Z,14.69
2019-05-25T08:31:01.405Z,14.72
2019-05-25T08:36:07.033Z,14.87
2019-05-25T08:41:12.276Z,14.95
2019-05-25T08:46:18.846Z,15.04
2019-05-25T08:51:24.088Z,15.12
2019-05-25T08:56:29.654Z,15.08
2019-05-25T09:01:34.960Z,15.18
2019-05-25T09:06:40.297Z,15.42
2019-05-25T09:11:45.882Z,15.51
2019-05-25T09:16:51.194Z,15.37
2019-05-25T09:22:02.660Z,15.25
2019-05-25T09:27:03.508Z,15.64
2019-05-25T09:32:08.733Z,15.87
2019-05-25T09:37:14.293Z,16.00
2019-05-25T09:42:19.853Z,16.30
2019-05-25T09:47:25.098Z,16.46
2019-05-25T09:52:30.356Z,16.60
2019-05-25T09:57:35.596Z,16.92
2019-05-25T10:02:41.854Z,16.86
2019-05-25T10:07:47.363Z,17.06
2019-05-25T10:12:53.006Z,17.20
2019-05-25T10:17:58.287Z,17.31
2019-05-25T10:23:03.824Z,17.31
2019-05-25T10:28:09.060Z,17.18
2019-05-25T10:33:14.313Z,17.12
2019-05-25T10:38:19.911Z,17.80
2019-05-25T10:43:26.527Z,18.07
2019-05-25T10:48:32.097Z,18.56
2019-05-25T10:53:37.334Z,18.57
2019-05-25T10:58:42.582Z,18.74
2019-05-25T11:03:47.860Z,18.54
2019-05-25T11:08:53.191Z,18.26
2019-05-25T11:13:58.813Z,18.14
2019-05-25T11:19:04.066Z,18.16
2019-05-25T11:24:09.307Z,18.05
2019-05-25T11:29:14.875Z,17.77
2019-05-25T11:34:20.161Z,17.85
2019-05-25T11:39:25.494Z,18.16
2019-05-25T11:44:30.711Z,18.55
2019-05-25T11:49:35.995Z,18.09
2019-05-25T11:54:42.568Z,18.05
2019-05-25T11:59:47.874Z,18.29
2019-05-25T12:04:53.148Z,18.54
2019-05-25T12:09:58.394Z,18.71
2019-05-25T12:15:03.639Z,18.58
2019-05-25T12:20:11.645Z,18.68
2019-05-25T12:25:17.991Z,18.39
2019-05-25T12:30:23.315Z,18.74
2019-05-25T12:35:28.932Z,18.95
2019-05-25T12:40:34.175Z,19.53
2019-05-25T12:45:42.070Z,19.59
2019-05-25T12:50:46.665Z,19.56
2019-05-25T12:55:51.921Z,19.19
2019-05-25T13:00:57.276Z,19.39
2019-05-25T13:06:02.842Z,19.04
2019-05-25T13:11:09.660Z,18.59
2019-05-25T13:16:15.179Z,19.00
2019-05-25T13:21:20.414Z,19.05
2019-05-25T13:26:25.655Z,19.27
2019-05-25T13:31:30.827Z,19.22
2019-05-25T13:36:36.065Z,19.13
2019-05-25T13:41:41.329Z,19.02
2019-05-25T13:46:46.593Z,19.01
2019-05-25T13:51:51.861Z,19.02
2019-05-25T13:56:57.109Z,19.07
2019-05-25T14:02:02.650Z,18.84
2019-05-25T14:07:08.536Z,19.42
2019-05-25T14:12:13.775Z,19.40
2019-05-25T14:17:19.023Z,20.01
2019-05-25T14:22:24.599Z,19.28
2019-05-25T14:27:29.789Z,20.08
2019-05-25T14:32:35.372Z,20.77
2019-05-25T14:37:40.607Z,20.81
2019-05-25T14:42:45.873Z,19.94
2019-05-25T14:47:51.310Z,20.07
2019-05-25T14:52:57.429Z,20.85
2019-05-25T14:58:03.857Z,20.38
2019-05-25T15:03:09.461Z,20.39
2019-05-25T15:08:14.700Z,20.72
2019-05-25T15:13:20.425Z,20.78
2019-05-25T15:18:25.680Z,20.52
2019-05-25T15:23:30.912Z,20.67
2019-05-25T15:28:36.161Z,20.67
2019-05-25T15:33:42.745Z,20.23
2019-05-25T15:38:48.322Z,20.23
2019-05-25T15:43:53.679Z,21.19
2019-05-25T15:48:58.937Z,21.68
2019-05-25T15:54:04.267Z,21.34
2019-05-25T15:59:09.497Z,21.66
2019-05-25T16:04:14.749Z,21.40
2019-05-25T16:09:19.986Z,21.06
2019-05-25T16:14:25.263Z,21.18
2019-05-25T16:19:30.881Z,21.09
2019-05-25T16:24:36.117Z,21.31
2019-05-25T16:29:41.345Z,21.27
2019-05-25T16:34:46.931Z,20.93
2019-05-25T16:39:53.313Z,21.26
2019-05-25T16:44:58.578Z,20.89
2019-05-25T16:50:03.962Z,21.07
2019-05-25T16:55:10.248Z,20.11
2019-05-25T17:00:19.978Z,20.14
2019-05-25T17:05:26.531Z,20.38
2019-05-25T17:10:31.773Z,20.73
2019-05-25T17:15:37.036Z,21.33
2019-05-25T17:20:42.387Z,21.34
2019-05-25T17:25:47.647Z,20.64
2019-05-25T17:30:52.964Z,20.33
2019-05-25T17:35:58.317Z,20.45
2019-05-25T17:41:03.885Z,19.90
2019-05-25T17:46:09.131Z,19.85
2019-05-25T17:51:14.523Z,19.49
2019-05-25T17:56:20.171Z,19.48
2019-05-25T18:01:25.435Z,19.67
2019-05-25T18:06:30.741Z,19.11
2019-05-25T18:11:35.985Z,18.56
2019-05-25T18:16:41.244Z,18.37
2019-05-25T18:21:46.721Z,17.78
2019-05-25T18:26:51.960Z,17.28
2019-05-25T18:31:57.211Z,16.68
2019-05-25T18:37:03.524Z,16.49
2019-05-25T18:42:09.104Z,16.17
2019-05-25T18:47:14.773Z,15.67
2019-05-25T18:52:20.047Z,15.38
2019-05-25T18:57:25.208Z,15.02
2019-05-25T19:02:30.470Z,14.83
2019-05-25T19:07:36.804Z,14.65
2019-05-25T19:12:42.050Z,14.39
2019-05-25T19:17:47.285Z,14.17
2019-05-25T19:22:52.980Z,13.76
2019-05-25T19:27:58.611Z,13.53
2019-05-25T19:33:03.852Z,13.36
2019-05-25T19:38:09.078Z,13.25
2019-05-25T19:43:14.307Z,13.18
2019-05-25T19:48:19.540Z,13.06
2019-05-25T19:53:24.845Z,12.91
2019-05-25T19:58:30.098Z,12.82
2019-05-25T20:03:35.459Z,12.61
2019-05-25T20:08:40.790Z,12.44
2019-05-25T20:13:46.025Z,12.31
2019-05-25T20:18:51.286Z,12.14
2019-05-25T20:23:56.524Z,11.98
2019-05-25T20:29:02.029Z,11.87
2019-05-25T20:34:07.247Z,11.75
2019-05-25T20:39:12.573Z,11.70
2019-05-25T20:44:18.137Z,11.74
2019-05-25T20:49:23.411Z,11.63
2019-05-25T20:54:28.723Z,11.53
2019-05-25T20:59:34.736Z,11.38
2019-05-25T21:04:40.010Z,11.36
2019-05-25T21:09:45.579Z,11.30
2019-05-25T21:14:51.097Z,11.19
2019-05-25T21:19:56.327Z,11.06
2019-05-25T21:25:05.959Z,10.97
2019-05-25T21:30:10.154Z,10.85
2019-05-25T21:35:15.906Z,10.73
2019-05-25T21:40:21.144Z,10.73
2019-05-25T21:45:26.735Z,10.76
2019-05-25T21:50:32.082Z,10.77
2019-05-25T21:55:37.331Z,10.75
2019-05-25T22:00:43.252Z,10.68
2019-05-25T22:05:48.565Z,10.62
2019-05-25T22:10:54.093Z,10.51
2019-05-25T22:15:59.681Z,10.45
2019-05-25T22:21:04.944Z,10.20
2019-05-25T22:26:10.191Z,10.12
2019-05-25T22:31:15.846Z,10.09
2019-05-25T22:36:21.170Z,10.03
2019-05-25T22:41:26.455Z,10.01
2019-05-25T22:46:31.682Z,9.86
2019-05-25T22:51:37.229Z,9.81
2019-05-25T22:56:43.382Z,9.85
2019-05-25T23:01:48.648Z,9.84
2019-05-25T23:06:58.124Z,9.83
2019-05-25T23:12:03.114Z,9.67
2019-05-25T23:17:08.826Z,9.64
2019-05-25T23:22:14.054Z,9.60
2019-05-25T23:27:19.390Z,9.41
2019-05-25T23:32:24.626Z,9.35
2019-05-25T23:37:30.085Z,9.34
2019-05-25T23:42:36.022Z,9.20
2019-05-25T23:47:41.653Z,9.21
2019-05-25T23:52:46.925Z,9.12
2019-05-25T23:57:52.155Z,9.13
